createdAt,value
2018-05-27T00:00:21.694Z,96.44
2018-05-27T00:02:48.107Z,96.17
2018-05-27T00:05:14.522Z,96.23
2018-05-27T00:07:40.906Z,97.43
2018-05-27T00:10:07.366Z,97.37
2018-05-27T00:12:33.738Z,96.92
2018-05-27T00:15:00.085Z,96.59
2018-05-27T00:17:26.488Z,96.91
2018-05-27T00:19:52.829Z,97.35
2018-05-27T00:22:19.216Z,97.45
2018-05-27T00:24:45.578Z,96.99
2018-05-27T00:27:11.993Z,96.47
2018-05-27T00:29:38.366Z,96.16
2018-05-27T00:32:04.712Z,95.98
2018-05-27T00:34:31.124Z,96.84
2018-05-27T00:36:57.498Z,96.94
2018-05-27T00:39:23.856Z,97.14
2018-05-27T00:41:50.209Z,97.16
2018-05-27T00:44:16.549Z,96.71
2018-05-27T00:46:42.969Z,97.33
2018-05-27T00:49:09.301Z,96.85
2018-05-27T00:51:35.645Z,97.42
2018-05-27T00:54:02.041Z,97.45
2018-05-27T00:56:28.437Z,97.32
2018-05-27T00:58:54.823Z,96.95
2018-05-27T01:01:21.166Z,96.72
2018-05-27T01:03:47.551Z,96.86
2018-05-27T01:06:14.066Z,97.35
2018-05-27T01:08:40.456Z,96.59
2018-05-27T01:11:06.926Z,96.42
2018-05-27T01:13:33.344Z,95.54
2018-05-27T01:15:59.770Z,96.06
2018-05-27T01:18:26.168Z,95.41
2018-05-27T01:20:52.544Z,95.48
2018-05-27T01:23:18.969Z,94.28
2018-05-27T01:25:45.345Z,94.29
2018-05-27T01:28:12.386Z,94.21
2018-05-27T01:30:38.778Z,94.02
2018-05-27T01:33:05.149Z,94.83
2018-05-27T01:35:31.564Z,95.13
2018-05-27T01:37:57.981Z,94.69
2018-05-27T01:40:24.332Z,94.76
2018-05-27T01:42:50.699Z,95.04
2018-05-27T01:45:17.043Z,95.33
2018-05-27T01:47:43.441Z,95.77
2018-05-27T01:50:09.863Z,95.57
2018-05-27T01:52:36.249Z,95.07
2018-05-27T01:55:02.610Z,94.85
2018-05-27T01:57:28.997Z,95.64
2018-05-27T01:59:55.353Z,95.44
2018-05-27T02:02:21.746Z,95.99
2018-05-27T02:04:48.073Z,94.94
2018-05-27T02:07:14.437Z,96.16
2018-05-27T02:09:40.805Z,95.87
2018-05-27T02:12:07.199Z,96.44
2018-05-27T02:14:33.529Z,96.75
2018-05-27T02:16:59.968Z,97.04
2018-05-27T02:19:26.306Z,96.47
2018-05-27T02:21:52.696Z,96.81
2018-05-27T02:24:19.060Z,96.46
2018-05-27T02:26:45.482Z,96.60
2018-05-27T02:29:11.937Z,96.47
2018-05-27T02:31:38.541Z,96.43
2018-05-27T02:34:04.948Z,96.41
2018-05-27T02:36:31.346Z,96.70
2018-05-27T02:38:57.748Z,95.90
2018-05-27T02:41:24.112Z,96.46
2018-05-27T02:43:50.442Z,97.19
2018-05-27T02:46:16.825Z,96.63
2018-05-27T02:48:43.226Z,97.07
2018-05-27T02:51:09.624Z,96.75
2018-05-27T02:53:35.941Z,96.95
2018-05-27T02:56:02.334Z,96.36
2018-05-27T02:58:28.660Z,96.39
2018-05-27T03:00:55.026Z,97.37
2018-05-27T03:03:21.358Z,97.62
2018-05-27T03:05:47.697Z,97.67
2018-05-27T03:08:14.067Z,97.84
2018-05-27T03:10:40.470Z,97.93
2018-05-27T03:13:06.798Z,97.36
2018-05-27T03:15:33.151Z,97.47
2018-05-27T03:17:59.573Z,97.30
2018-05-27T03:20:25.916Z,96.43
2018-05-27T03:22:52.288Z,95.95
2018-05-27T03:25:18.612Z,95.56
2018-05-27T03:27:45.029Z,95.81
2018-05-27T03:30:11.445Z,95.36
2018-05-27T03:32:37.808Z,94.63
2018-05-27T03:35:04.176Z,95.79
2018-05-27T03:37:30.621Z,95.71
2018-05-27T03:39:56.998Z,96.56
2018-05-27T03:42:23.351Z,96.12
2018-05-27T03:44:49.714Z,96.07
2018-05-27T03:47:16.106Z,95.47
2018-05-27T03:49:42.494Z,95.26
2018-05-27T03:52:08.831Z,94.65
2018-05-27T03:54:35.256Z,94.65
2018-05-27T03:57:01.641Z,94.48
2018-05-27T03:59:28.035Z,93.10
2018-05-27T04:01:54.425Z,91.83
2018-05-27T04:04:33.013Z,91.53
2018-05-27T04:07:12.579Z,89.98
2018-05-27T04:09:39.082Z,90.03
2018-05-27T04:12:05.477Z,88.39
2018-05-27T04:14:31.869Z,88.11
2018-05-27T04:16:58.301Z,89.24
2018-05-27T04:19:24.773Z,88.60
2018-05-27T04:21:51.177Z,90.00
2018-05-27T04:24:17.597Z,90.55
2018-05-27T04:26:44.098Z,88.85
2018-05-27T04:29:10.631Z,88.32
2018-05-27T04:31:37.049Z,89.73
2018-05-27T04:34:03.482Z,89.21
2018-05-27T04:36:30.052Z,88.58
2018-05-27T04:38:56.555Z,88.83
2018-05-27T04:41:23.030Z,86.83
2018-05-27T04:43:49.495Z,81.30
2018-05-27T04:46:16.112Z,70.40
2018-05-27T04:48:42.649Z,67.06
2018-05-27T04:51:09.080Z,65.62
2018-05-27T04:53:35.963Z,65.28
2018-05-27T04:56:03.551Z,66.36
2018-05-27T04:58:30.910Z,64.95
2018-05-27T05:00:58.057Z,60.53
2018-05-27T05:03:24.865Z,60.76
2018-05-27T05:05:51.473Z,59.85
2018-05-27T05:08:18.036Z,59.38
2018-05-27T05:10:44.783Z,60.04
2018-05-27T05:13:11.348Z,59.22
2018-05-27T05:15:38.008Z,61.59
2018-05-27T05:18:04.551Z,62.50
2018-05-27T05:20:31.131Z,62.13
2018-05-27T05:22:57.589Z,59.01
2018-05-27T05:25:24.019Z,58.40
2018-05-27T05:27:50.525Z,60.89
2018-05-27T05:30:16.970Z,58.53
2018-05-27T05:32:43.502Z,64.83
2018-05-27T05:35:10.024Z,63.09
2018-05-27T05:37:36.599Z,56.51
2018-05-27T05:40:03.102Z,58.67
2018-05-27T05:42:29.730Z,57.57
2018-05-27T05:44:57.416Z,57.79
2018-05-27T05:47:25.065Z,56.38
2018-05-27T05:49:51.791Z,58.81
2018-05-27T05:52:19.579Z,57.73
2018-05-27T05:54:46.779Z,54.40
2018-05-27T05:57:14.872Z,54.95
2018-05-27T05:59:41.994Z,54.22
2018-05-27T06:02:08.981Z,54.54
2018-05-27T06:04:35.539Z,53.46
2018-05-27T06:07:02.462Z,55.86
2018-05-27T06:09:29.121Z,55.77
2018-05-27T06:11:55.974Z,55.53
2018-05-27T06:14:22.909Z,55.14
2018-05-27T06:16:51.239Z,55.82
2018-05-27T06:19:18.382Z,56.53
2018-05-27T06:21:45.142Z,60.50
2018-05-27T06:24:12.131Z,58.72
2018-05-27T06:26:39.086Z,59.62
2018-05-27T06:29:05.635Z,58.05
2018-05-27T06:31:32.110Z,58.57
2018-05-27T06:33:58.891Z,57.56
2018-05-27T06:36:25.507Z,58.30
2018-05-27T06:38:52.266Z,59.54
2018-05-27T06:41:19.072Z,56.20
2018-05-27T06:43:45.790Z,55.56
2018-05-27T06:46:12.363Z,57.82
2018-05-27T06:48:39.845Z,57.41
2018-05-27T06:51:06.406Z,54.30
2018-05-27T06:53:32.951Z,53.22
2018-05-27T06:55:59.514Z,56.40
2018-05-27T06:58:26.713Z,56.49
2018-05-27T07:00:53.309Z,56.43
2018-05-27T07:03:20.522Z,57.64
2018-05-27T07:05:47.819Z,53.75
2018-05-27T07:08:14.402Z,56.23
2018-05-27T07:10:42.029Z,53.82
2018-05-27T07:13:08.532Z,56.16
2018-05-27T07:15:34.935Z,56.11
2018-05-27T07:18:01.380Z,55.46
2018-05-27T07:20:27.920Z,60.08
2018-05-27T07:22:54.368Z,54.16
2018-05-27T07:25:20.931Z,58.29
2018-05-27T07:27:47.897Z,54.58
2018-05-27T07:30:14.350Z,54.69
2018-05-27T07:32:40.885Z,53.30
2018-05-27T07:35:08.078Z,56.13
2018-05-27T07:37:34.518Z,56.51
2018-05-27T07:40:01.523Z,53.38
2018-05-27T07:42:28.529Z,58.74
2018-05-27T07:44:55.257Z,59.70
2018-05-27T07:47:21.813Z,58.58
2018-05-27T07:49:48.422Z,53.65
2018-05-27T07:52:15.270Z,51.08
2018-05-27T07:54:42.022Z,54.37
2018-05-27T07:57:08.622Z,48.43
2018-05-27T07:59:35.061Z,48.75
2018-05-27T08:02:01.544Z,51.67
2018-05-27T08:04:28.317Z,50.34
2018-05-27T08:06:54.967Z,55.81
2018-05-27T08:09:21.483Z,57.00
2018-05-27T08:11:47.889Z,54.08
2018-05-27T08:14:14.372Z,54.90
2018-05-27T08:16:41.552Z,59.75
2018-05-27T08:19:08.236Z,56.71
2018-05-27T08:21:35.080Z,54.18
2018-05-27T08:24:01.656Z,48.11
2018-05-27T08:26:28.125Z,46.83
2018-05-27T08:28:54.619Z,51.47
2018-05-27T08:31:21.145Z,55.95
2018-05-27T08:33:47.737Z,54.65
2018-05-27T08:36:14.321Z,57.22
2018-05-27T08:38:40.910Z,51.83
2018-05-27T08:41:07.343Z,54.14
2018-05-27T08:43:33.986Z,53.18
2018-05-27T08:46:00.398Z,57.52
2018-05-27T08:48:26.931Z,54.15
2018-05-27T08:50:53.379Z,54.87
2018-05-27T08:53:19.814Z,53.76
2018-05-27T08:55:46.317Z,55.21
2018-05-27T08:58:12.761Z,51.39
2018-05-27T09:00:39.172Z,54.72
2018-05-27T09:03:05.544Z,50.71
2018-05-27T09:05:31.934Z,56.43
2018-05-27T09:07:58.428Z,54.04
2018-05-27T09:10:24.967Z,49.24
2018-05-27T09:12:51.401Z,54.75
2018-05-27T09:15:17.942Z,51.01
2018-05-27T09:17:44.480Z,53.32
2018-05-27T09:20:11.066Z,48.25
2018-05-27T09:22:37.521Z,47.37
2018-05-27T09:25:04.040Z,48.68
2018-05-27T09:27:31.526Z,44.01
2018-05-27T09:29:58.393Z,45.48
2018-05-27T09:32:25.427Z,46.00
2018-05-27T09:34:52.068Z,48.39
2018-05-27T09:37:19.321Z,52.93
2018-05-27T09:39:45.744Z,48.96
2018-05-27T09:42:12.295Z,51.66
2018-05-27T09:44:38.976Z,50.94
2018-05-27T09:47:05.386Z,50.37
2018-05-27T09:49:32.154Z,52.14
2018-05-27T09:51:59.139Z,51.27
2018-05-27T09:54:25.839Z,49.16
2018-05-27T09:56:52.541Z,51.82
2018-05-27T09:59:19.132Z,49.61
2018-05-27T10:01:45.727Z,49.67
2018-05-27T10:04:12.263Z,45.50
2018-05-27T10:06:38.997Z,48.80
2018-05-27T10:09:06.653Z,49.91
2018-05-27T10:11:33.369Z,46.00
2018-05-27T10:13:59.893Z,49.83
2018-05-27T10:16:26.540Z,46.82
2018-05-27T10:18:53.418Z,50.29
2018-05-27T10:21:20.111Z,50.54
2018-05-27T10:23:46.604Z,46.30
2018-05-27T10:26:13.106Z,45.78
2018-05-27T10:28:39.594Z,45.48
2018-05-27T10:31:06.056Z,46.62
2018-05-27T10:33:32.834Z,47.73
2018-05-27T10:35:59.537Z,47.08
2018-05-27T10:38:26.244Z,48.47
2018-05-27T10:40:52.800Z,43.49
2018-05-27T10:43:19.325Z,47.88
2018-05-27T10:45:45.738Z,45.01
2018-05-27T10:48:12.394Z,49.27
2018-05-27T10:50:41.079Z,48.63
2018-05-27T10:53:08.658Z,48.88
2018-05-27T10:55:36.186Z,48.93
2018-05-27T10:58:03.214Z,45.92
2018-05-27T11:00:30.766Z,45.65
2018-05-27T11:02:58.030Z,48.66
2018-05-27T11:05:26.026Z,44.53
2018-05-27T11:07:55.799Z,45.69
2018-05-27T11:10:23.168Z,45.40
2018-05-27T11:12:50.349Z,45.55
2018-05-27T11:15:17.568Z,44.94
2018-05-27T11:17:44.806Z,44.29
2018-05-27T11:20:12.238Z,46.85
2018-05-27T11:22:39.730Z,46.11
2018-05-27T11:25:06.499Z,46.62
2018-05-27T11:27:33.709Z,44.48
2018-05-27T11:30:00.595Z,44.24
2018-05-27T11:32:27.790Z,43.37
2018-05-27T11:34:55.285Z,46.27
2018-05-27T11:37:22.471Z,47.45
2018-05-27T11:39:50.274Z,47.56
2018-05-27T11:42:17.076Z,49.04
2018-05-27T11:44:44.807Z,51.80
2018-05-27T11:47:11.664Z,45.93
2018-05-27T11:49:39.116Z,48.54
2018-05-27T11:52:06.723Z,43.88
2018-05-27T11:54:34.526Z,41.95
2018-05-27T11:57:01.900Z,43.13
2018-05-27T11:59:29.645Z,46.68
2018-05-27T12:01:57.775Z,47.44
2018-05-27T12:04:26.021Z,46.82
2018-05-27T12:06:54.080Z,48.96
2018-05-27T12:09:22.108Z,52.69
2018-05-27T12:11:49.968Z,50.12
2018-05-27T12:14:17.675Z,53.86
2018-05-27T12:16:45.554Z,52.79
2018-05-27T12:19:12.718Z,53.41
2018-05-27T12:21:39.706Z,48.86
2018-05-27T12:24:07.179Z,47.30
2018-05-27T12:26:34.146Z,43.32
2018-05-27T12:29:00.724Z,43.79
2018-05-27T12:31:27.248Z,42.59
2018-05-27T12:33:54.162Z,48.48
2018-05-27T12:36:20.897Z,45.35
2018-05-27T12:38:47.680Z,48.89
2018-05-27T12:41:14.312Z,47.52
2018-05-27T12:43:41.588Z,46.92
2018-05-27T12:46:08.193Z,58.61
2018-05-27T12:48:34.715Z,44.37
2018-05-27T12:51:02.327Z,44.46
2018-05-27T12:53:29.110Z,54.19
2018-05-27T12:55:56.576Z,45.29
2018-05-27T12:58:23.268Z,54.48
2018-05-27T13:00:50.147Z,47.49
2018-05-27T13:03:16.807Z,49.03
2018-05-27T13:05:43.667Z,50.68
2018-05-27T13:08:10.876Z,47.95
2018-05-27T13:10:38.345Z,48.49
2018-05-27T13:13:05.267Z,45.87
2018-05-27T13:15:32.065Z,46.91
2018-05-27T13:17:58.853Z,45.76
2018-05-27T13:20:26.739Z,45.26
2018-05-27T13:22:53.894Z,48.28
2018-05-27T13:25:20.901Z,46.55
2018-05-27T13:27:47.749Z,46.46
2018-05-27T13:30:14.765Z,45.35
2018-05-27T13:32:42.461Z,46.02
2018-05-27T13:35:09.385Z,44.74
2018-05-27T13:37:36.272Z,48.43
2018-05-27T13:40:03.181Z,44.82
2018-05-27T13:42:30.161Z,44.25
2018-05-27T13:44:58.988Z,46.43
2018-05-27T13:47:27.462Z,47.67
2018-05-27T13:49:54.823Z,44.53
2018-05-27T13:52:21.579Z,54.54
2018-05-27T13:54:48.609Z,46.59
2018-05-27T13:57:15.245Z,47.49
2018-05-27T13:59:41.918Z,50.86
2018-05-27T14:02:08.383Z,47.93
2018-05-27T14:04:35.301Z,56.14
2018-05-27T14:07:01.815Z,49.73
2018-05-27T14:09:28.392Z,56.72
2018-05-27T14:11:54.917Z,55.14
2018-05-27T14:14:21.444Z,50.14
2018-05-27T14:16:48.038Z,48.44
2018-05-27T14:19:14.584Z,47.06
2018-05-27T14:21:41.216Z,44.18
2018-05-27T14:24:07.707Z,46.74
2018-05-27T14:26:34.331Z,45.07
2018-05-27T14:29:00.908Z,52.21
2018-05-27T14:31:27.639Z,53.31
2018-05-27T14:33:54.116Z,57.64
2018-05-27T14:36:21.591Z,60.54
2018-05-27T14:38:48.137Z,50.78
2018-05-27T14:41:14.766Z,52.00
2018-05-27T14:43:41.239Z,50.67
2018-05-27T14:46:07.751Z,50.34
2018-05-27T14:48:34.326Z,49.56
2018-05-27T14:51:01.253Z,48.35
2018-05-27T14:53:27.886Z,51.95
2018-05-27T14:55:54.899Z,48.39
2018-05-27T14:58:21.843Z,47.11
2018-05-27T15:00:48.465Z,53.26
2018-05-27T15:03:15.272Z,49.68
2018-05-27T15:05:41.833Z,45.86
2018-05-27T15:08:08.331Z,47.57
2018-05-27T15:10:35.057Z,50.25
2018-05-27T15:13:01.860Z,49.85
2018-05-27T15:15:28.567Z,47.26
2018-05-27T15:17:55.248Z,49.46
2018-05-27T15:20:21.965Z,52.42
2018-05-27T15:22:48.516Z,48.37
2018-05-27T15:25:15.074Z,50.97
2018-05-27T15:27:41.539Z,53.03
2018-05-27T15:30:08.015Z,55.89
2018-05-27T15:32:34.493Z,52.09
2018-05-27T15:35:01.095Z,53.41
2018-05-27T15:37:28.094Z,54.95
2018-05-27T15:39:54.754Z,59.07
2018-05-27T15:42:21.191Z,57.91
2018-05-27T15:44:47.659Z,57.10
2018-05-27T15:47:14.125Z,57.90
2018-05-27T15:49:40.548Z,57.54
2018-05-27T15:52:06.972Z,55.43
2018-05-27T15:54:33.980Z,56.62
2018-05-27T15:57:00.533Z,55.97
2018-05-27T15:59:27.071Z,56.64
2018-05-27T16:01:53.499Z,57.26
2018-05-27T16:04:20.016Z,59.41
2018-05-27T16:06:46.476Z,61.44
2018-05-27T16:09:12.902Z,58.82
2018-05-27T16:11:39.359Z,59.07
2018-05-27T16:14:05.814Z,60.83
2018-05-27T16:16:32.338Z,59.73
2018-05-27T16:18:58.810Z,61.78
2018-05-27T16:21:25.356Z,60.86
2018-05-27T16:23:51.857Z,61.68
2018-05-27T16:26:18.403Z,58.06
2018-05-27T16:28:45.088Z,59.45
2018-05-27T16:31:11.528Z,62.06
2018-05-27T16:33:38.021Z,60.87
2018-05-27T16:36:04.588Z,63.94
2018-05-27T16:38:31.064Z,67.73
2018-05-27T16:40:57.931Z,67.94
2018-05-27T16:43:24.480Z,67.49
2018-05-27T16:45:51.290Z,69.89
2018-05-27T16:48:17.795Z,60.27
2018-05-27T16:50:44.238Z,62.36
2018-05-27T16:53:10.714Z,61.55
2018-05-27T16:55:38.244Z,59.48
2018-05-27T16:58:05.878Z,60.14
2018-05-27T17:00:34.145Z,57.93
2018-05-27T17:03:02.176Z,61.37
2018-05-27T17:05:29.283Z,59.75
2018-05-27T17:07:56.552Z,58.73
2018-05-27T17:10:24.171Z,59.80
2018-05-27T17:12:51.811Z,64.55
2018-05-27T17:15:19.771Z,64.15
2018-05-27T17:17:47.858Z,60.06
2018-05-27T17:20:16.306Z,60.75
2018-05-27T17:22:43.201Z,65.61
2018-05-27T17:25:09.759Z,60.31
2018-05-27T17:27:37.724Z,60.25
2018-05-27T17:30:04.246Z,61.26
2018-05-27T17:32:31.005Z,61.00
2018-05-27T17:34:58.287Z,63.15
2018-05-27T17:37:25.028Z,61.35
2018-05-27T17:39:51.915Z,62.75
2018-05-27T17:42:20.554Z,67.67
2018-05-27T17:44:47.260Z,67.97
2018-05-27T17:47:14.692Z,70.41
2018-05-27T17:49:41.823Z,66.11
2018-05-27T17:52:08.953Z,64.03
2018-05-27T17:54:35.974Z,60.81
2018-05-27T17:57:02.869Z,64.05
2018-05-27T17:59:29.834Z,62.22
2018-05-27T18:01:56.343Z,64.88
2018-05-27T18:04:23.132Z,64.34
2018-05-27T18:06:49.727Z,62.61
2018-05-27T18:09:16.234Z,64.35
2018-05-27T18:11:42.796Z,67.70
2018-05-27T18:14:09.455Z,64.87
2018-05-27T18:16:36.145Z,65.35
2018-05-27T18:19:02.801Z,65.93
2018-05-27T18:21:29.818Z,67.12
2018-05-27T18:23:56.905Z,69.46
2018-05-27T18:26:24.507Z,70.29
2018-05-27T18:28:51.491Z,72.99
2018-05-27T18:31:18.585Z,67.78
2018-05-27T18:33:45.231Z,73.01
2018-05-27T18:36:11.913Z,74.85
2018-05-27T18:38:39.511Z,74.71
2018-05-27T18:41:06.138Z,78.00
2018-05-27T18:43:32.720Z,77.47
2018-05-27T18:45:59.349Z,79.62
2018-05-27T18:48:25.923Z,78.23
2018-05-27T18:50:52.444Z,78.83
2018-05-27T18:53:19.018Z,78.24
2018-05-27T18:55:45.969Z,81.12
2018-05-27T18:58:12.476Z,80.55
2018-05-27T19:00:39.014Z,81.65
2018-05-27T19:03:05.608Z,82.64
2018-05-27T19:05:32.245Z,83.57
2018-05-27T19:07:58.768Z,81.81
2018-05-27T19:10:25.483Z,83.34
2018-05-27T19:12:52.528Z,82.85
2018-05-27T19:15:19.229Z,86.07
2018-05-27T19:17:45.866Z,84.90
2018-05-27T19:20:12.352Z,82.30
2018-05-27T19:22:38.858Z,84.60
2018-05-27T19:25:05.412Z,85.45
2018-05-27T19:27:31.994Z,86.22
2018-05-27T19:29:58.905Z,85.27
2018-05-27T19:32:25.850Z,85.94
2018-05-27T19:34:52.807Z,85.69
2018-05-27T19:37:19.549Z,86.08
2018-05-27T19:39:46.593Z,85.44
2018-05-27T19:42:13.255Z,85.01
2018-05-27T19:44:39.812Z,86.71
2018-05-27T19:47:06.523Z,86.03
2018-05-27T19:49:33.086Z,86.73
2018-05-27T19:51:59.771Z,87.33
2018-05-27T19:54:26.428Z,86.48
2018-05-27T19:56:53.932Z,87.17
2018-05-27T19:59:20.885Z,88.74
2018-05-27T20:01:47.683Z,88.31
2018-05-27T20:04:14.422Z,88.25
2018-05-27T20:06:41.220Z,88.06
2018-05-27T20:09:07.671Z,89.65
2018-05-27T20:11:34.543Z,89.39
2018-05-27T20:14:01.057Z,89.07
2018-05-27T20:16:27.543Z,89.79
2018-05-27T20:18:53.970Z,90.03
2018-05-27T20:21:20.492Z,89.91
2018-05-27T20:23:47.076Z,89.83
2018-05-27T20:26:13.605Z,89.82
2018-05-27T20:28:40.220Z,88.80
2018-05-27T20:31:06.770Z,88.77
2018-05-27T20:33:33.280Z,87.77
2018-05-27T20:36:00.913Z,88.41
2018-05-27T20:38:27.493Z,88.99
2018-05-27T20:40:53.940Z,89.27
2018-05-27T20:43:20.456Z,88.73
2018-05-27T20:45:47.275Z,89.10
2018-05-27T20:48:13.817Z,88.17
2018-05-27T20:50:40.285Z,89.25
2018-05-27T20:53:07.190Z,88.91
2018-05-27T20:55:33.826Z,89.44
2018-05-27T20:58:00.309Z,89.97
2018-05-27T21:00:26.826Z,90.68
2018-05-27T21:02:53.687Z,88.87
2018-05-27T21:05:20.143Z,89.40
2018-05-27T21:07:46.789Z,90.09
2018-05-27T21:10:13.203Z,89.42
2018-05-27T21:12:39.743Z,90.66
2018-05-27T21:15:06.367Z,91.08
2018-05-27T21:17:32.783Z,90.81
2018-05-27T21:19:59.140Z,90.87
2018-05-27T21:22:25.636Z,91.85
2018-05-27T21:24:52.216Z,91.88
2018-05-27T21:27:18.845Z,90.65
2018-05-27T21:29:45.404Z,90.77
2018-05-27T21:32:11.924Z,90.33
2018-05-27T21:34:38.431Z,90.02
2018-05-27T21:37:04.891Z,90.67
2018-05-27T21:39:31.363Z,91.38
2018-05-27T21:41:57.884Z,91.44
2018-05-27T21:44:24.317Z,92.26
2018-05-27T21:46:50.757Z,92.19
2018-05-27T21:49:17.185Z,91.90
2018-05-27T21:51:43.592Z,91.39
2018-05-27T21:54:10.011Z,92.23
2018-05-27T21:56:36.388Z,91.15
2018-05-27T21:59:02.761Z,91.88
2018-05-27T22:01:29.157Z,92.35
2018-05-27T22:03:55.560Z,92.96
2018-05-27T22:06:22.122Z,92.23
2018-05-27T22:08:48.586Z,92.73
2018-05-27T22:11:14.969Z,92.10
2018-05-27T22:13:41.330Z,92.66
2018-05-27T22:16:07.758Z,91.96
2018-05-27T22:18:34.093Z,92.38
2018-05-27T22:21:00.468Z,91.79
2018-05-27T22:23:26.921Z,92.94
2018-05-27T22:25:53.271Z,92.97
2018-05-27T22:28:19.725Z,92.53
2018-05-27T22:30:46.162Z,92.81
2018-05-27T22:33:12.575Z,92.86
2018-05-27T22:35:39.143Z,93.42
2018-05-27T22:38:05.590Z,92.26
2018-05-27T22:40:32.193Z,93.36
2018-05-27T22:42:58.809Z,93.43
2018-05-27T22:45:25.191Z,93.70
2018-05-27T22:47:51.674Z,93.69
2018-05-27T22:50:18.155Z,93.36
2018-05-27T22:52:44.580Z,93.66
2018-05-27T22:55:11.197Z,94.50
2018-05-27T22:57:37.696Z,94.19
2018-05-27T23:00:04.182Z,94.09
2018-05-27T23:02:31.804Z,94.02
2018-05-27T23:04:58.387Z,94.38
2018-05-27T23:07:24.795Z,94.70
2018-05-27T23:09:51.329Z,94.90
2018-05-27T23:12:17.677Z,95.30
2018-05-27T23:14:44.015Z,95.34
2018-05-27T23:17:10.380Z,95.14
2018-05-27T23:19:36.911Z,95.15
2018-05-27T23:22:03.369Z,95.26
2018-05-27T23:24:29.787Z,95.27
2018-05-27T23:26:56.224Z,94.81
2018-05-27T23:29:22.601Z,94.56
2018-05-27T23:31:49.021Z,95.07
2018-05-27T23:34:15.587Z,95.59
2018-05-27T23:36:41.937Z,95.71
2018-05-27T23:39:08.392Z,95.93
2018-05-27T23:41:34.781Z,96.58
2018-05-27T23:44:01.253Z,96.09
2018-05-27T23:46:27.609Z,96.22
2018-05-27T23:48:53.974Z,96.23
2018-05-27T23:51:20.475Z,96.48
2018-05-27T23:53:46.866Z,96.39
2018-05-27T23:56:13.242Z,96.36
2018-05-27T23:58:39.605Z,96.89
